Tropical Cyclones
[Index]
Main Index Home Page Stock Weather Photos Extreme Storms Discussion Storm News and Storm Chasing Reports Tropical Cyclones / Hurricanes / Typhoons Weather Data and Links Wild Fires / Bushfires Weather Observation Techniques Weather Picture Catalogue Tornado Pictures and Reports Stock Video Footage and DVDs for sale
Season 2019-2020 Tropical Cyclone BLAKE Track Map
Season 2019-2020 Summaries (Operational Data): [AU] [SIO] [SPAC] [SH]
<<- Previous TC | 2019-2020 Season | Next TC ->>

click for intensity scale information  Lat/long Grid: Show Hide

 Date Labels: Show Hide

Operational Tropical Cyclone Data

Name: BLAKE
Number: 2006

02 Jan 2020 18:00 UTC to 10 Jan 2020 00:00 UTC

    date/time    lat    long     hPa   cat  kts
2020-01-02 18   11.3   109.2    1010         15          
2020-01-03 00   11.8   115.6    1010         15          
2020-01-03 06   11.8   116.3    1008         15          
2020-01-03 12   11.8   117.0    1007         20          
2020-01-03 18   12.8   118.1    1007         20          
2020-01-04 00   13.1   118.9    1003         20          
2020-01-04 06   13.4   119.7    1002         25          
2020-01-04 12   13.8   120.5    1002         25          
2020-01-04 18   14.4   121.0    1001         25          
2020-01-05 00   14.9   121.1    1001         30          
2020-01-05 06   15.1   121.3    1001         30          
2020-01-05 12   15.3   121.2    1000         30          
2020-01-05 18   15.6   121.6     996    1    35          
2020-01-06 00   16.1   122.1     993    1    45          
2020-01-06 06   16.7   122.2     991    2    50          
2020-01-06 12   17.4   122.0     991    2    50          
2020-01-06 18   17.9   121.8     989    2    50          
2020-01-07 00   18.3   121.7     996    1    40          
2020-01-07 06   18.7   121.2     994    1    35          
2020-01-07 12   19.5   121.0     995    1    35          
2020-01-07 18   19.8   120.6     991    1    35          
2020-01-08 00   20.7   119.7     994    1    35          
2020-01-08 06   21.0   119.6     994    1    35          
2020-01-08 12   21.4   119.7     995         30          
2020-01-08 18   22.1   120.0    1000         30          
2020-01-09 00   23.1   120.3     998         25          
2020-01-09 06   24.0   120.7    1000         25          
2020-01-09 12   24.7   120.9    1000         20          
2020-01-09 18   25.7   121.7    1000         20          
2020-01-10 00   26.2   123.1    1004         20          
Winds are 10-min average.

Tropical cyclone tracks developed by Michael Bath using operational warnings and advisories and Google Maps.


[Australian Severe Weather index] [Copyright Notice] [Email Contacts] [Search This Site] [Privacy Policy]
Document: tropical_cyclone_blake.htm Updated: 11 March 2020